sensor_id;sensor_type;location;lat;lon;timestamp;pressure;altitude;pressure_sealevel;temperature;humidity
50592;BME280;36548;50.506;30.834;2022-07-24T00:00:00;99968.61;;;24.34;47.36
50592;BME280;36548;50.506;30.834;2022-07-24T00:01:12;99966.27;;;24.31;47.53
50592;BME280;36548;50.506;30.834;2022-07-24T00:02:27;99959.81;;;24.39;47.62
50592;BME280;36548;50.506;30.834;2022-07-24T00:03:37;99965.99;;;24.26;47.59
50592;BME280;36548;50.506;30.834;2022-07-24T00:04:48;99965.75;;;24.21;47.81
50592;BME280;36548;50.506;30.834;2022-07-24T00:06:03;99959.27;;;24.29;48.02
50592;BME280;36548;50.506;30.834;2022-07-24T00:07:13;99964.69;;;24.22;47.55
50592;BME280;36548;50.506;30.834;2022-07-24T00:08:29;99960.14;;;24.29;47.10
50592;BME280;36548;50.506;30.834;2022-07-24T00:09:39;99959.53;;;24.12;47.00
50592;BME280;36548;50.506;30.834;2022-07-24T00:11:06;99962.86;;;24.08;47.08
50592;BME280;36548;50.506;30.834;2022-07-24T00:12:16;99961.16;;;24.07;47.03
50592;BME280;36548;50.506;30.834;2022-07-24T00:13:31;99957.25;;;24.16;47.05
50592;BME280;36548;50.506;30.834;2022-07-24T00:14:41;99958.41;;;24.07;46.99
50592;BME280;36548;50.506;30.834;2022-07-24T00:15:50;99955.03;;;24.05;46.95
50592;BME280;36548;50.506;30.834;2022-07-24T00:16:59;99950.59;;;24.04;46.99
50592;BME280;36548;50.506;30.834;2022-07-24T00:18:09;99956.27;;;24.02;47.07
50592;BME280;36548;50.506;30.834;2022-07-24T00:19:19;99955.87;;;24.05;47.08
50592;BME280;36548;50.506;30.834;2022-07-24T00:20:31;99957.18;;;24.09;47.01
50592;BME280;36548;50.506;30.834;2022-07-24T00:21:41;99961.43;;;24.12;46.94
50592;BME280;36548;50.506;30.834;2022-07-24T00:22:57;99960.77;;;24.10;46.90
50592;BME280;36548;50.506;30.834;2022-07-24T00:24:16;99953.52;;;24.02;47.15
50592;BME280;36548;50.506;30.834;2022-07-24T00:25:36;99952.69;;;24.02;47.20
50592;BME280;36548;50.506;30.834;2022-07-24T00:26:46;99950.71;;;23.80;47.75
50592;BME280;36548;50.506;30.834;2022-07-24T00:27:55;99945.73;;;23.69;48.00
50592;BME280;36548;50.506;30.834;2022-07-24T00:29:04;99950.09;;;23.63;48.13
50592;BME280;36548;50.506;30.834;2022-07-24T00:30:16;99946.77;;;23.68;48.11
50592;BME280;36548;50.506;30.834;2022-07-24T00:31:26;99946.41;;;23.71;48.05
50592;BME280;36548;50.506;30.834;2022-07-24T00:32:40;99949.51;;;23.68;48.06
50592;BME280;36548;50.506;30.834;2022-07-24T00:33:55;99946.94;;;23.81;48.15
50592;BME280;36548;50.506;30.834;2022-07-24T00:35:05;99943.27;;;23.74;48.13
50592;BME280;36548;50.506;30.834;2022-07-24T00:36:21;99945.03;;;23.82;48.15
50592;BME280;36548;50.506;30.834;2022-07-24T00:37:30;99947.92;;;23.74;48.03
50592;BME280;36548;50.506;30.834;2022-07-24T00:38:46;99946.21;;;23.73;48.27
50592;BME280;36548;50.506;30.834;2022-07-24T00:40:03;99947.64;;;23.69;48.11
50592;BME280;36548;50.506;30.834;2022-07-24T00:41:13;99944.22;;;23.66;48.03
50592;BME280;36548;50.506;30.834;2022-07-24T00:42:39;99935.14;;;23.81;47.91
50592;BME280;36548;50.506;30.834;2022-07-24T00:45:11;99945.82;;;23.76;47.68
50592;BME280;36548;50.506;30.834;2022-07-24T00:46:23;99938.23;;;23.78;47.61
50592;BME280;36548;50.506;30.834;2022-07-24T00:47:33;99944.67;;;23.85;47.51
50592;BME280;36548;50.506;30.834;2022-07-24T00:48:42;99941.37;;;23.90;47.49
50592;BME280;36548;50.506;30.834;2022-07-24T00:49:52;99942.48;;;23.95;47.41
50592;BME280;36548;50.506;30.834;2022-07-24T00:51:07;99938.58;;;24.05;47.45
50592;BME280;36548;50.506;30.834;2022-07-24T00:52:17;99938.51;;;23.98;47.47
50592;BME280;36548;50.506;30.834;2022-07-24T00:53:33;99929.12;;;24.07;47.16
50592;BME280;36548;50.506;30.834;2022-07-24T00:54:42;99938.91;;;23.95;47.18
50592;BME280;36548;50.506;30.834;2022-07-24T00:56:09;99933.63;;;23.93;47.13
50592;BME280;36548;50.506;30.834;2022-07-24T00:57:19;99937.00;;;23.95;47.11
50592;BME280;36548;50.506;30.834;2022-07-24T00:58:30;99934.26;;;23.95;46.98
50592;BME280;36548;50.506;30.834;2022-07-24T00:59:40;99932.75;;;23.93;47.10
50592;BME280;36548;50.506;30.834;2022-07-24T01:00:50;99938.03;;;23.94;47.14
50592;BME280;36548;50.506;30.834;2022-07-24T01:02:07;99932.91;;;24.06;47.36
50592;BME280;36548;50.506;30.834;2022-07-24T01:03:17;99940.13;;;23.92;47.63
50592;BME280;36548;50.506;30.834;2022-07-24T01:04:27;99946.66;;;23.91;47.93
50592;BME280;36548;50.506;30.834;2022-07-24T01:05:37;99941.73;;;23.87;48.16
50592;BME280;36548;50.506;30.834;2022-07-24T01:06:47;99936.81;;;23.82;48.36
50592;BME280;36548;50.506;30.834;2022-07-24T01:07:57;99941.84;;;23.78;48.51
50592;BME280;36548;50.506;30.834;2022-07-24T01:09:13;99934.18;;;23.89;48.72
50592;BME280;36548;50.506;30.834;2022-07-24T01:10:23;99945.63;;;23.77;48.69
50592;BME280;36548;50.506;30.834;2022-07-24T01:11:39;99941.73;;;23.87;48.72
50592;BME280;36548;50.506;30.834;2022-07-24T01:12:48;99943.27;;;23.74;48.85
50592;BME280;36548;50.506;30.834;2022-07-24T01:14:15;99946.02;;;23.74;48.75
50592;BME280;36548;50.506;30.834;2022-07-24T01:15:31;99944.78;;;23.77;48.77
50592;BME280;36548;50.506;30.834;2022-07-24T01:16:42;99952.00;;;23.63;48.62
50592;BME280;36548;50.506;30.834;2022-07-24T01:17:54;99938.85;;;23.58;48.62
50592;BME280;36548;50.506;30.834;2022-07-24T01:19:19;99946.41;;;23.71;48.74
50592;BME280;36548;50.506;30.834;2022-07-24T01:20:37;99944.33;;;23.58;48.39
50592;BME280;36548;50.506;30.834;2022-07-24T01:21:53;99947.46;;;23.55;48.28
50592;BME280;36548;50.506;30.834;2022-07-24T01:23:13;99948.15;;;23.42;48.17
50592;BME280;36548;50.506;30.834;2022-07-24T01:24:24;99951.63;;;23.36;48.19
50592;BME280;36548;50.506;30.834;2022-07-24T01:25:33;99953.82;;;23.41;48.23
50592;BME280;36548;50.506;30.834;2022-07-24T01:26:49;99949.81;;;23.58;48.21
50592;BME280;36548;50.506;30.834;2022-07-24T01:27:58;99952.85;;;23.48;48.13
50592;BME280;36548;50.506;30.834;2022-07-24T01:29:07;99957.30;;;23.49;48.18
50592;BME280;36548;50.506;30.834;2022-07-24T01:30:17;99953.72;;;23.49;48.22
50592;BME280;36548;50.506;30.834;2022-07-24T01:31:27;99955.05;;;23.38;48.57
50592;BME280;36548;50.506;30.834;2022-07-24T01:32:36;99948.73;;;23.38;48.60
50592;BME280;36548;50.506;30.834;2022-07-24T01:33:45;99958.27;;;23.27;48.77
50592;BME280;36548;50.506;30.834;2022-07-24T01:35:01;99950.70;;;23.29;48.78
50592;BME280;36548;50.506;30.834;2022-07-24T01:36:11;99961.75;;;23.21;49.06
50592;BME280;36548;50.506;30.834;2022-07-24T01:37:20;99962.52;;;23.29;48.87
50592;BME280;36548;50.506;30.834;2022-07-24T01:38:30;99958.53;;;23.32;48.80
50592;BME280;36548;50.506;30.834;2022-07-24T01:39:45;99954.20;;;23.38;48.94
50592;BME280;36548;50.506;30.834;2022-07-24T01:40:56;99954.86;;;23.25;48.94
50592;BME280;36548;50.506;30.834;2022-07-24T01:42:06;99954.20;;;23.23;48.99
50592;BME280;36548;50.506;30.834;2022-07-24T01:43:16;99948.83;;;23.29;48.92
50592;BME280;36548;50.506;30.834;2022-07-24T01:44:31;99947.58;;;23.32;49.05
50592;BME280;36548;50.506;30.834;2022-07-24T01:45:41;99952.50;;;23.22;48.98
50592;BME280;36548;50.506;30.834;2022-07-24T01:46:50;99952.02;;;23.18;49.08
50592;BME280;36548;50.506;30.834;2022-07-24T01:48:11;99950.98;;;23.19;49.07
50592;BME280;36548;50.506;30.834;2022-07-24T01:49:21;99958.61;;;23.09;49.29
50592;BME280;36548;50.506;30.834;2022-07-24T01:50:33;99952.66;;;23.05;49.29
50592;BME280;36548;50.506;30.834;2022-07-24T01:51:42;99954.95;;;23.17;49.15
50592;BME280;36548;50.506;30.834;2022-07-24T01:52:58;99946.25;;;23.28;49.07
50592;BME280;36548;50.506;30.834;2022-07-24T01:54:11;99951.66;;;23.21;48.89
50592;BME280;36548;50.506;30.834;2022-07-24T01:55:28;99943.80;;;23.33;48.84
50592;BME280;36548;50.506;30.834;2022-07-24T01:56:39;99941.16;;;23.25;48.76
50592;BME280;36548;50.506;30.834;2022-07-24T01:58:06;99947.86;;;23.22;48.84
50592;BME280;36548;50.506;30.834;2022-07-24T01:59:16;99941.36;;;23.23;48.85
50592;BME280;36548;50.506;30.834;2022-07-24T02:00:28;99954.11;;;23.16;49.03
50592;BME280;36548;50.506;30.834;2022-07-24T02:01:37;99954.30;;;23.14;49.14
50592;BME280;36548;50.506;30.834;2022-07-24T02:02:47;99957.23;;;23.13;49.23
50592;BME280;36548;50.506;30.834;2022-07-24T02:03:58;99953.08;;;23.17;49.12
50592;BME280;36548;50.506;30.834;2022-07-24T02:05:08;99960.72;;;23.22;49.09
50592;BME280;36548;50.506;30.834;2022-07-24T02:06:19;99959.49;;;23.24;49.09
50592;BME280;36548;50.506;30.834;2022-07-24T02:07:35;99957.98;;;23.37;49.02
50592;BME280;36548;50.506;30.834;2022-07-24T02:08:44;99967.22;;;23.21;49.21
50592;BME280;36548;50.506;30.834;2022-07-24T02:09:54;99961.30;;;23.17;49.34
50592;BME280;36548;50.506;30.834;2022-07-24T02:11:04;99965.06;;;23.16;49.49
50592;BME280;36548;50.506;30.834;2022-07-24T02:12:14;99956.52;;;23.11;49.71
50592;BME280;36548;50.506;30.834;2022-07-24T02:13:30;99964.92;;;23.09;50.00
50592;BME280;36548;50.506;30.834;2022-07-24T02:14:40;99962.84;;;22.96;50.06
50592;BME280;36548;50.506;30.834;2022-07-24T02:15:49;99962.93;;;22.88;50.29
50592;BME280;36548;50.506;30.834;2022-07-24T02:16:59;99967.45;;;22.81;50.55
50592;BME280;36548;50.506;30.834;2022-07-24T02:18:16;99962.82;;;22.81;50.49
50592;BME280;36548;50.506;30.834;2022-07-24T02:19:25;99962.63;;;22.83;50.57
50592;BME280;36548;50.506;30.834;2022-07-24T02:20:37;99962.90;;;22.73;50.84
50592;BME280;36548;50.506;30.834;2022-07-24T02:21:53;99956.52;;;22.81;50.92
50592;BME280;36548;50.506;30.834;2022-07-24T02:23:05;99959.59;;;22.78;50.82
50592;BME280;36548;50.506;30.834;2022-07-24T02:24:15;99959.20;;;22.66;51.01
50592;BME280;36548;50.506;30.834;2022-07-24T02:25:25;99954.39;;;22.68;50.95
50592;BME280;36548;50.506;30.834;2022-07-24T02:26:41;99954.91;;;22.87;50.78
50592;BME280;36548;50.506;30.834;2022-07-24T02:27:50;99960.08;;;22.81;50.65
50592;BME280;36548;50.506;30.834;2022-07-24T02:28:59;99958.19;;;22.82;50.60
50592;BME280;36548;50.506;30.834;2022-07-24T02:30:14;99959.52;;;22.86;50.56
50592;BME280;36548;50.506;30.834;2022-07-24T02:31:23;99960.39;;;22.87;50.49
50592;BME280;36548;50.506;30.834;2022-07-24T02:32:39;99963.13;;;22.87;50.37
50592;BME280;36548;50.506;30.834;2022-07-24T02:33:54;99966.59;;;22.80;50.55
50592;BME280;36548;50.506;30.834;2022-07-24T02:35:05;99962.44;;;22.85;50.58
50592;BME280;36548;50.506;30.834;2022-07-24T02:36:32;99961.14;;;22.95;50.60
50592;BME280;36548;50.506;30.834;2022-07-24T02:37:53;99963.23;;;22.93;50.53
50592;BME280;36548;50.506;30.834;2022-07-24T02:39:02;99958.13;;;23.05;50.39
50592;BME280;36548;50.506;30.834;2022-07-24T02:40:14;99963.22;;;23.08;49.96
50592;BME280;36548;50.506;30.834;2022-07-24T02:41:24;99953.08;;;23.17;49.82
50592;BME280;36548;50.506;30.834;2022-07-24T02:42:35;99952.95;;;23.10;49.90
50592;BME280;36548;50.506;30.834;2022-07-24T02:43:45;99956.17;;;23.14;49.93
50592;BME280;36548;50.506;30.834;2022-07-24T02:44:55;99964.22;;;23.15;49.78
50592;BME280;36548;50.506;30.834;2022-07-24T02:46:05;99961.55;;;23.22;49.65
50592;BME280;36548;50.506;30.834;2022-07-24T02:47:20;99953.05;;;23.32;49.64
50592;BME280;36548;50.506;30.834;2022-07-24T02:48:29;99959.95;;;23.28;49.61
50592;BME280;36548;50.506;30.834;2022-07-24T02:49:39;99957.59;;;23.25;49.40
50592;BME280;36548;50.506;30.834;2022-07-24T02:50:55;99956.75;;;23.24;49.15
50592;BME280;36548;50.506;30.834;2022-07-24T02:52:15;99955.14;;;23.30;49.06
50592;BME280;36548;50.506;30.834;2022-07-24T02:53:36;99948.64;;;23.31;49.26
50592;BME280;36548;50.506;30.834;2022-07-24T02:54:45;99946.92;;;23.45;48.86
50592;BME280;36548;50.506;30.834;2022-07-24T02:56:20;99945.09;;;23.67;48.58
50592;BME280;36548;50.506;30.834;2022-07-24T02:57:30;99953.51;;;23.65;48.47
50592;BME280;36548;50.506;30.834;2022-07-24T02:58:49;99953.12;;;23.69;48.17
50592;BME280;36548;50.506;30.834;2022-07-24T03:00:09;99949.34;;;23.70;48.16
50592;BME280;36548;50.506;30.834;2022-07-24T03:01:26;99943.92;;;23.76;48.17
50592;BME280;36548;50.506;30.834;2022-07-24T03:02:36;99949.09;;;23.86;47.82
50592;BME280;36548;50.506;30.834;2022-07-24T03:03:47;99945.22;;;23.95;47.90
50592;BME280;36548;50.506;30.834;2022-07-24T03:04:57;99948.44;;;23.99;47.62
50592;BME280;36548;50.506;30.834;2022-07-24T03:06:13;99946.16;;;24.24;47.59
50592;BME280;36548;50.506;30.834;2022-07-24T03:07:22;99949.34;;;24.28;47.39
50592;BME280;36548;50.506;30.834;2022-07-24T03:08:32;99942.81;;;24.29;46.72
50592;BME280;36548;50.506;30.834;2022-07-24T03:09:42;99941.84;;;24.37;46.67
50592;BME280;36548;50.506;30.834;2022-07-24T03:10:57;99950.64;;;24.54;46.45
50592;BME280;36548;50.506;30.834;2022-07-24T03:12:08;99950.84;;;24.52;46.29
50592;BME280;36548;50.506;30.834;2022-07-24T03:13:18;99947.00;;;24.46;46.24
50592;BME280;36548;50.506;30.834;2022-07-24T03:14:34;99941.89;;;24.65;46.02
50592;BME280;36548;50.506;30.834;2022-07-24T03:15:43;99956.33;;;24.52;46.15
50592;BME280;36548;50.506;30.834;2022-07-24T03:16:55;99954.48;;;24.59;46.05
50592;BME280;36548;50.506;30.834;2022-07-24T03:18:05;99951.30;;;24.56;45.67
50592;BME280;36548;50.506;30.834;2022-07-24T03:19:16;99951.30;;;24.56;45.67
50592;BME280;36548;50.506;30.834;2022-07-24T03:20:31;99942.09;;;24.63;46.23
50592;BME280;36548;50.506;30.834;2022-07-24T03:21:41;99946.08;;;24.61;45.96
50592;BME280;36548;50.506;30.834;2022-07-24T03:22:53;99953.73;;;24.65;45.80
50592;BME280;36548;50.506;30.834;2022-07-24T03:24:04;99949.49;;;24.63;45.64
50592;BME280;36548;50.506;30.834;2022-07-24T03:25:15;99948.28;;;24.72;45.76
50592;BME280;36548;50.506;30.834;2022-07-24T03:26:25;99948.08;;;24.74;45.50
50592;BME280;36548;50.506;30.834;2022-07-24T03:27:41;99939.67;;;24.75;45.59
50592;BME280;36548;50.506;30.834;2022-07-24T03:28:50;99944.90;;;24.70;45.47
50592;BME280;36548;50.506;30.834;2022-07-24T03:30:00;99942.00;;;24.78;45.53
50592;BME280;36548;50.506;30.834;2022-07-24T03:31:10;99953.04;;;24.85;45.38
50592;BME280;36548;50.506;30.834;2022-07-24T03:32:20;99947.57;;;24.92;45.05
50592;BME280;36548;50.506;30.834;2022-07-24T03:33:29;99946.98;;;24.96;44.96
50592;BME280;36548;50.506;30.834;2022-07-24T03:34:39;99943.62;;;25.01;44.78
50592;BME280;36548;50.506;30.834;2022-07-24T03:35:49;99952.55;;;25.10;44.73
50592;BME280;36548;50.506;30.834;2022-07-24T03:36:59;99942.70;;;25.22;44.67
50592;BME280;36548;50.506;30.834;2022-07-24T03:38:09;99952.01;;;25.21;44.41
50592;BME280;36548;50.506;30.834;2022-07-24T03:39:24;99942.39;;;25.39;44.80
50592;BME280;36548;50.506;30.834;2022-07-24T03:40:45;99942.81;;;25.35;44.73
50592;BME280;36548;50.506;30.834;2022-07-24T03:41:54;99944.97;;;25.47;44.09
50592;BME280;36548;50.506;30.834;2022-07-24T03:43:04;99943.96;;;25.55;43.93
50592;BME280;36548;50.506;30.834;2022-07-24T03:44:15;99947.61;;;25.68;44.06
50592;BME280;36548;50.506;30.834;2022-07-24T03:45:25;99941.95;;;25.83;43.46
50592;BME280;36548;50.506;30.834;2022-07-24T03:46:36;99943.02;;;25.96;43.25
50592;BME280;36548;50.506;30.834;2022-07-24T03:47:47;99934.86;;;26.16;43.10
50592;BME280;36548;50.506;30.834;2022-07-24T03:49:02;99932.55;;;26.40;42.19
50592;BME280;36548;50.506;30.834;2022-07-24T03:50:13;99933.18;;;26.48;42.73
50592;BME280;36548;50.506;30.834;2022-07-24T03:51:24;99930.04;;;26.78;42.39
50592;BME280;36548;50.506;30.834;2022-07-24T03:52:36;99928.28;;;27.04;40.95
50592;BME280;36548;50.506;30.834;2022-07-24T03:53:51;99928.49;;;27.09;40.81
50592;BME280;36548;50.506;30.834;2022-07-24T03:55:08;99936.97;;;27.14;40.61
50592;BME280;36548;50.506;30.834;2022-07-24T03:56:28;99936.91;;;27.28;40.63
50592;BME280;36548;50.506;30.834;2022-07-24T03:57:45;99937.33;;;27.45;40.71
50592;BME280;36548;50.506;30.834;2022-07-24T03:58:54;99929.66;;;27.53;39.78
50592;BME280;36548;50.506;30.834;2022-07-24T04:00:06;99932.58;;;27.65;40.35
50592;BME280;36548;50.506;30.834;2022-07-24T04:01:22;99933.91;;;27.95;39.58
50592;BME280;36548;50.506;30.834;2022-07-24T04:02:32;99935.57;;;28.02;39.39
50592;BME280;36548;50.506;30.834;2022-07-24T04:03:43;99934.86;;;28.14;39.25
50592;BME280;36548;50.506;30.834;2022-07-24T04:04:53;99932.73;;;28.16;38.62
50592;BME280;36548;50.506;30.834;2022-07-24T04:06:08;99927.33;;;28.28;38.90
50592;BME280;36548;50.506;30.834;2022-07-24T04:07:19;99931.49;;;28.12;38.91
50592;BME280;36548;50.506;30.834;2022-07-24T04:08:30;99933.19;;;28.13;38.93
50592;BME280;36548;50.506;30.834;2022-07-24T04:09:40;99933.98;;;28.20;38.84
50592;BME280;36548;50.506;30.834;2022-07-24T04:10:50;99932.52;;;28.17;38.56
50592;BME280;36548;50.506;30.834;2022-07-24T04:12:08;99930.36;;;28.19;38.64
50592;BME280;36548;50.506;30.834;2022-07-24T04:13:17;99925.41;;;28.03;39.08
50592;BME280;36548;50.506;30.834;2022-07-24T04:14:27;99923.48;;;28.03;39.35
50592;BME280;36548;50.506;30.834;2022-07-24T04:15:37;99925.97;;;28.12;39.10
50592;BME280;36548;50.506;30.834;2022-07-24T04:16:50;99926.99;;;28.17;39.17
50592;BME280;36548;50.506;30.834;2022-07-24T04:18:00;99922.98;;;28.13;38.62
50592;BME280;36548;50.506;30.834;2022-07-24T04:19:10;99928.55;;;28.06;38.99
50592;BME280;36548;50.506;30.834;2022-07-24T04:20:22;99933.91;;;28.01;39.05
50592;BME280;36548;50.506;30.834;2022-07-24T04:21:32;99923.44;;;28.10;39.59
50592;BME280;36548;50.506;30.834;2022-07-24T04:22:42;99920.19;;;28.20;38.96
50592;BME280;36548;50.506;30.834;2022-07-24T04:23:52;99927.55;;;28.26;38.86
50592;BME280;36548;50.506;30.834;2022-07-24T04:25:02;99928.65;;;28.25;38.77
50592;BME280;36548;50.506;30.834;2022-07-24T04:26:12;99935.45;;;28.22;38.93
50592;BME280;36548;50.506;30.834;2022-07-24T04:27:22;99933.57;;;28.16;38.93
50592;BME280;36548;50.506;30.834;2022-07-24T04:28:37;99929.39;;;28.39;39.38
50592;BME280;36548;50.506;30.834;2022-07-24T04:29:48;99937.22;;;28.42;38.97
50592;BME280;36548;50.506;30.834;2022-07-24T04:31:03;99931.56;;;28.55;38.76
50592;BME280;36548;50.506;30.834;2022-07-24T04:32:13;99931.87;;;28.47;38.83
50592;BME280;36548;50.506;30.834;2022-07-24T04:33:40;99933.04;;;28.58;38.83
50592;BME280;36548;50.506;30.834;2022-07-24T04:34:55;99923.87;;;28.89;38.36
50592;BME280;36548;50.506;30.834;2022-07-24T04:36:05;99927.61;;;28.77;37.94
50592;BME280;36548;50.506;30.834;2022-07-24T04:37:21;99928.45;;;28.77;38.25
50592;BME280;36548;50.506;30.834;2022-07-24T04:38:33;99933.88;;;28.65;38.51
50592;BME280;36548;50.506;30.834;2022-07-24T04:40:00;99926.98;;;28.74;38.89
50592;BME280;36548;50.506;30.834;2022-07-24T04:41:15;99924.56;;;28.85;38.25
50592;BME280;36548;50.506;30.834;2022-07-24T04:42:26;99928.73;;;28.69;38.31
50592;BME280;36548;50.506;30.834;2022-07-24T04:43:41;99924.22;;;28.74;38.50
50592;BME280;36548;50.506;30.834;2022-07-24T04:44:51;99922.09;;;28.77;38.91
50592;BME280;36548;50.506;30.834;2022-07-24T04:46:19;99920.27;;;28.89;38.33
50592;BME280;36548;50.506;30.834;2022-07-24T04:47:28;99925.10;;;28.94;38.02
50592;BME280;36548;50.506;30.834;2022-07-24T04:48:38;99925.70;;;28.96;38.25
50592;BME280;36548;50.506;30.834;2022-07-24T04:49:55;99914.98;;;29.06;38.16
50592;BME280;36548;50.506;30.834;2022-07-24T04:51:05;99921.88;;;28.97;38.31
50592;BME280;36548;50.506;30.834;2022-07-24T04:52:22;99919.75;;;29.17;38.29
50592;BME280;36548;50.506;30.834;2022-07-24T04:53:32;99924.27;;;29.12;38.15
50592;BME280;36548;50.506;30.834;2022-07-24T04:54:59;99917.55;;;29.26;37.96
50592;BME280;36548;50.506;30.834;2022-07-24T04:56:09;99913.41;;;29.35;37.68
50592;BME280;36548;50.506;30.834;2022-07-24T04:57:18;99914.79;;;29.45;37.62
50592;BME280;36548;50.506;30.834;2022-07-24T04:58:29;99906.17;;;29.53;37.63
50592;BME280;36548;50.506;30.834;2022-07-24T04:59:39;99907.52;;;29.62;37.41
50592;BME280;36548;50.506;30.834;2022-07-24T05:00:49;99905.74;;;29.68;37.17
50592;BME280;36548;50.506;30.834;2022-07-24T05:02:05;99902.03;;;29.92;37.20
50592;BME280;36548;50.506;30.834;2022-07-24T05:03:14;99906.02;;;29.97;37.29
50592;BME280;36548;50.506;30.834;2022-07-24T05:04:24;99894.75;;;30.10;36.85
50592;BME280;36548;50.506;30.834;2022-07-24T05:05:36;99897.87;;;30.14;36.96
50592;BME280;36548;50.506;30.834;2022-07-24T05:06:46;99907.28;;;30.24;36.73
50592;BME280;36548;50.506;30.834;2022-07-24T05:07:55;99901.16;;;30.34;36.80
50592;BME280;36548;50.506;30.834;2022-07-24T05:09:04;99903.10;;;30.34;36.58
50592;BME280;36548;50.506;30.834;2022-07-24T05:10:15;99904.41;;;30.31;37.22
50592;BME280;36548;50.506;30.834;2022-07-24T05:11:25;99908.08;;;30.43;36.65
50592;BME280;36548;50.506;30.834;2022-07-24T05:12:40;99902.56;;;30.67;36.55
50592;BME280;36548;50.506;30.834;2022-07-24T05:13:50;99895.70;;;30.70;36.18
50592;BME280;36548;50.506;30.834;2022-07-24T05:15:06;99896.27;;;30.95;35.78
50592;BME280;36548;50.506;30.834;2022-07-24T05:16:17;99892.30;;;30.91;35.47
50592;BME280;36548;50.506;30.834;2022-07-24T05:17:45;99891.34;;;30.98;35.50
50592;BME280;36548;50.506;30.834;2022-07-24T05:18:56;99895.68;;;31.17;35.08
50592;BME280;36548;50.506;30.834;2022-07-24T05:20:08;99890.45;;;31.33;34.97
50592;BME280;36548;50.506;30.834;2022-07-24T05:21:34;99886.05;;;31.60;34.62
50592;BME280;36548;50.506;30.834;2022-07-24T05:22:44;99880.50;;;31.60;34.33
50592;BME280;36548;50.506;30.834;2022-07-24T05:23:54;99883.89;;;31.63;34.53
50592;BME280;36548;50.506;30.834;2022-07-24T05:25:10;99882.92;;;31.86;34.45
50592;BME280;36548;50.506;30.834;2022-07-24T05:26:19;99885.44;;;31.87;34.30
50592;BME280;36548;50.506;30.834;2022-07-24T05:27:35;99878.92;;;32.10;34.01
50592;BME280;36548;50.506;30.834;2022-07-24T05:28:44;99885.81;;;32.08;33.59
50592;BME280;36548;50.506;30.834;2022-07-24T05:29:54;99883.14;;;32.13;33.63
50592;BME280;36548;50.506;30.834;2022-07-24T05:31:06;99883.27;;;32.18;33.43
50592;BME280;36548;50.506;30.834;2022-07-24T05:32:17;99883.33;;;32.23;33.29
50592;BME280;36548;50.506;30.834;2022-07-24T05:33:26;99879.56;;;32.29;33.11
50592;BME280;36548;50.506;30.834;2022-07-24T05:34:36;99880.23;;;32.37;32.88
50592;BME280;36548;50.506;30.834;2022-07-24T05:35:47;99876.78;;;32.46;32.96
50592;BME280;36548;50.506;30.834;2022-07-24T05:37:03;99869.84;;;32.66;33.12
50592;BME280;36548;50.506;30.834;2022-07-24T05:38:12;99874.23;;;32.62;32.71
50592;BME280;36548;50.506;30.834;2022-07-24T05:39:21;99877.92;;;32.68;32.56
50592;BME280;36548;50.506;30.834;2022-07-24T05:40:32;99869.97;;;32.71;32.53
50592;BME280;36548;50.506;30.834;2022-07-24T05:41:47;99869.92;;;32.88;32.17
50592;BME280;36548;50.506;30.834;2022-07-24T05:43:02;99868.10;;;32.77;32.21
50592;BME280;36548;50.506;30.834;2022-07-24T05:44:12;99879.82;;;32.79;32.36
50592;BME280;36548;50.506;30.834;2022-07-24T05:45:27;99865.61;;;32.97;32.33
50592;BME280;36548;50.506;30.834;2022-07-24T05:46:38;99875.56;;;32.93;32.00
50592;BME280;36548;50.506;30.834;2022-07-24T05:47:48;99877.04;;;33.01;31.86
50592;BME280;36548;50.506;30.834;2022-07-24T05:49:03;99863.67;;;33.20;31.49
50592;BME280;36548;50.506;30.834;2022-07-24T05:50:13;99866.64;;;33.13;30.86
50592;BME280;36548;50.506;30.834;2022-07-24T05:51:22;99869.50;;;33.19;31.21
50592;BME280;36548;50.506;30.834;2022-07-24T05:52:38;99863.63;;;33.37;31.08
50592;BME280;36548;50.506;30.834;2022-07-24T05:53:48;99866.94;;;33.34;30.93
50592;BME280;36548;50.506;30.834;2022-07-24T05:54:59;99869.72;;;33.34;30.75
50592;BME280;36548;50.506;30.834;2022-07-24T05:56:09;99865.58;;;33.37;30.66
50592;BME280;36548;50.506;30.834;2022-07-24T05:57:20;99866.41;;;33.37;30.57
50592;BME280;36548;50.506;30.834;2022-07-24T05:58:30;99868.70;;;33.40;30.52
50592;BME280;36548;50.506;30.834;2022-07-24T05:59:39;99864.22;;;33.39;30.52
50592;BME280;36548;50.506;30.834;2022-07-24T06:00:49;99869.52;;;33.41;30.72
50592;BME280;36548;50.506;30.834;2022-07-24T06:02:11;99854.95;;;33.56;30.80
50592;BME280;36548;50.506;30.834;2022-07-24T06:03:20;99856.58;;;33.52;30.92
50592;BME280;36548;50.506;30.834;2022-07-24T06:04:30;99853.53;;;33.53;30.78
50592;BME280;36548;50.506;30.834;2022-07-24T06:05:40;99854.95;;;33.56;30.51
50592;BME280;36548;50.506;30.834;2022-07-24T06:06:55;99850.34;;;33.67;30.19
50592;BME280;36548;50.506;30.834;2022-07-24T06:08:05;99857.80;;;33.61;30.39
50592;BME280;36548;50.506;30.834;2022-07-24T06:09:15;99860.88;;;33.64;30.12
50592;BME280;36548;50.506;30.834;2022-07-24T06:10:31;99853.16;;;33.72;30.18
50592;BME280;36548;50.506;30.834;2022-07-24T06:11:41;99853.33;;;33.60;30.28
50592;BME280;36548;50.506;30.834;2022-07-24T06:12:52;99855.91;;;33.67;30.14
50592;BME280;36548;50.506;30.834;2022-07-24T06:14:02;99856.80;;;33.72;29.97
50592;BME280;36548;50.506;30.834;2022-07-24T06:15:18;99848.36;;;33.89;29.61
50592;BME280;36548;50.506;30.834;2022-07-24T06:16:28;99856.66;;;33.84;29.68
50592;BME280;36548;50.506;30.834;2022-07-24T06:17:37;99854.20;;;33.88;29.47
50592;BME280;36548;50.506;30.834;2022-07-24T06:18:46;99864.27;;;33.94;29.51
50592;BME280;36548;50.506;30.834;2022-07-24T06:19:55;99861.21;;;33.95;29.19